createdAt,value
2023-01-04T00:01:24.030Z,10.40
2023-01-04T00:03:52.177Z,9.70
2023-01-04T00:06:20.586Z,9.90
2023-01-04T00:08:48.512Z,11.20
2023-01-04T00:11:21.955Z,9.10
2023-01-04T00:13:55.460Z,12.20
2023-01-04T00:16:24.978Z,14.80
2023-01-04T00:18:54.148Z,12.20
2023-01-04T00:21:24.637Z,8.30
2023-01-04T00:23:55.231Z,10.40
2023-01-04T00:26:29.919Z,11.30
2023-01-04T00:29:02.616Z,9.70
2023-01-04T00:31:30.611Z,10.10
2023-01-04T00:34:01.426Z,15.60
2023-01-04T00:36:29.459Z,8.80
2023-01-04T00:39:08.812Z,9.30
2023-01-04T00:44:28.716Z,10.10
2023-01-04T00:46:57.087Z,8.30
2023-01-04T00:49:25.822Z,9.40
2023-01-04T00:51:53.931Z,8.50
2023-01-04T00:54:22.264Z,7.70
2023-01-04T00:56:50.198Z,12.30
2023-01-04T00:59:19.757Z,11.00
2023-01-04T07:02:32.267Z,27.30
2023-01-04T07:05:00.248Z,26.50
2023-01-04T07:07:28.063Z,25.10
2023-01-04T07:09:56.486Z,31.20
2023-01-04T07:12:24.336Z,32.70
2023-01-04T07:14:52.028Z,32.00
2023-01-04T07:17:22.498Z,37.30
2023-01-04T07:19:54.118Z,30.90
2023-01-04T07:22:21.769Z,37.50
2023-01-04T07:24:49.448Z,34.40
2023-01-04T07:27:17.149Z,33.50
2023-01-04T07:29:44.996Z,35.00
2023-01-04T07:32:14.173Z,32.10
2023-01-04T07:34:43.429Z,34.60
2023-01-04T07:37:11.191Z,37.70
2023-01-04T07:39:39.097Z,33.30
2023-01-04T07:42:06.814Z,43.60
2023-01-04T07:44:34.510Z,45.80
2023-01-04T07:47:02.855Z,39.50
2023-01-04T07:49:30.536Z,37.30
2023-01-04T07:51:58.284Z,37.70
2023-01-04T07:54:26.122Z,35.60
2023-01-04T07:56:53.863Z,33.00
2023-01-04T07:59:22.313Z,28.90
2023-01-04T08:01:51.082Z,30.40
2023-01-04T08:04:23.488Z,30.80
2023-01-04T08:06:51.812Z,26.20
2023-01-04T08:09:19.662Z,30.00
2023-01-04T08:11:47.464Z,27.00
2023-01-04T08:14:15.345Z,34.90
2023-01-04T08:16:43.322Z,43.80
2023-01-04T08:19:20.417Z,24.70
2023-01-04T08:21:49.003Z,23.70
2023-01-04T08:24:18.969Z,26.70
2023-01-04T08:26:47.031Z,28.60
2023-01-04T08:29:14.969Z,26.70
2023-01-04T08:31:42.789Z,33.20
2023-01-04T08:34:10.725Z,23.10
2023-01-04T08:36:53.333Z,23.00
2023-01-04T08:39:21.924Z,21.80
2023-01-04T08:41:58.941Z,24.30
2023-01-04T08:44:30.661Z,20.60
2023-01-04T08:46:59.029Z,20.80
2023-01-04T08:49:27.087Z,22.60
2023-01-04T08:51:54.875Z,19.30
2023-01-04T08:54:23.115Z,20.30
2023-01-04T08:56:50.862Z,18.90
2023-01-04T08:59:18.866Z,22.90
2023-01-04T09:01:46.955Z,23.90
2023-01-04T09:04:14.841Z,19.90
2023-01-04T09:06:42.749Z,17.90
2023-01-04T09:09:10.598Z,18.10
2023-01-04T09:11:38.810Z,21.10
2023-01-04T09:14:09.342Z,19.20
2023-01-04T09:16:38.214Z,23.00
2023-01-04T09:19:06.575Z,20.70
2023-01-04T09:21:34.408Z,18.60
2023-01-04T09:24:02.208Z,20.20
2023-01-04T09:26:30.009Z,19.80
2023-01-04T09:28:58.043Z,21.10
2023-01-04T09:31:28.416Z,19.80
2023-01-04T09:34:15.984Z,20.20
2023-01-04T09:36:46.398Z,19.10
2023-01-04T09:39:24.010Z,22.00
2023-01-04T09:41:58.624Z,15.30
2023-01-04T09:45:21.133Z,17.70
2023-01-04T09:47:48.806Z,20.60
2023-01-04T09:50:54.850Z,20.50
2023-01-04T09:53:28.887Z,26.20
2023-01-04T09:56:07.571Z,24.20
2023-01-04T09:58:42.529Z,17.20
2023-01-04T10:01:15.721Z,14.30
2023-01-04T10:04:06.237Z,18.90
2023-01-04T10:06:34.858Z,16.60
2023-01-04T10:09:06.525Z,16.40
2023-01-04T10:12:05.938Z,16.90
2023-01-04T10:15:02.254Z,15.10
2023-01-04T10:18:33.912Z,15.40
2023-01-04T10:21:28.240Z,13.00
2023-01-04T10:24:22.768Z,13.20
2023-01-04T10:26:55.073Z,13.60
2023-01-04T10:29:41.014Z,9.10
2023-01-04T10:32:16.396Z,18.50
2023-01-04T10:34:46.460Z,20.10
2023-01-04T10:37:17.451Z,21.20
2023-01-04T10:39:46.102Z,17.90
2023-01-04T10:42:31.811Z,17.30
2023-01-04T10:45:23.759Z,15.70
2023-01-04T10:48:13.028Z,14.90
2023-01-04T10:51:05.046Z,16.80
2023-01-04T10:53:41.527Z,14.00
2023-01-04T10:56:30.971Z,14.80
2023-01-04T10:59:23.036Z,14.10
2023-01-04T11:01:59.213Z,15.70
2023-01-04T11:05:01.708Z,12.50
2023-01-04T11:07:40.197Z,17.50
2023-01-04T11:10:18.399Z,16.30
2023-01-04T11:12:46.118Z,15.10
2023-01-04T11:15:14.021Z,15.00
2023-01-04T11:17:43.198Z,15.60
2023-01-04T11:20:11.628Z,16.40
2023-01-04T11:22:54.205Z,14.00
2023-01-04T11:25:38.726Z,16.30
2023-01-04T11:28:18.219Z,12.10
2023-01-04T11:31:02.116Z,11.90
2023-01-04T11:35:59.520Z,14.60
2023-01-04T11:38:30.259Z,15.50
2023-01-04T11:41:07.958Z,14.60
2023-01-04T11:46:22.290Z,10.40
2023-01-04T11:48:50.849Z,10.10
2023-01-04T11:51:27.553Z,10.80
2023-01-04T11:54:21.372Z,11.80
2023-01-04T11:57:12.063Z,12.70
2023-01-04T11:59:40.109Z,14.20
2023-01-04T12:02:59.554Z,15.10
2023-01-04T12:05:28.098Z,16.10
2023-01-04T12:07:58.578Z,14.60
2023-01-04T12:10:28.350Z,12.40
2023-01-04T12:13:00.126Z,12.10
2023-01-04T12:15:32.390Z,13.80
2023-01-04T12:18:06.287Z,12.20
2023-01-04T12:20:35.741Z,14.70
2023-01-04T12:23:03.482Z,12.20
2023-01-04T12:25:35.065Z,12.70
2023-01-04T12:28:02.787Z,16.10
2023-01-04T12:30:46.423Z,15.90
2023-01-04T12:33:29.488Z,13.10
2023-01-04T12:36:18.115Z,18.50
2023-01-04T12:38:55.020Z,12.60
2023-01-04T12:42:00.427Z,15.30
2023-01-04T12:44:37.452Z,11.30
2023-01-04T12:47:47.348Z,15.70
2023-01-04T12:50:18.512Z,12.90
2023-01-04T12:55:43.728Z,17.70
2023-01-04T13:01:24.704Z,19.20
2023-01-04T13:04:02.455Z,18.90
2023-01-04T13:06:37.753Z,15.60
2023-01-04T13:09:20.697Z,14.40
2023-01-04T13:12:13.413Z,14.30
2023-01-04T13:14:49.541Z,16.10
2023-01-04T13:17:26.355Z,15.00
2023-01-04T13:19:54.768Z,14.00
2023-01-04T13:22:29.535Z,16.00
2023-01-04T13:25:00.067Z,16.50
2023-01-04T13:27:27.906Z,16.30
2023-01-04T13:29:55.850Z,18.60
2023-01-04T13:32:28.964Z,16.60
2023-01-04T13:35:06.857Z,28.00
2023-01-04T13:37:44.432Z,15.20
2023-01-04T13:40:29.781Z,14.80
2023-01-04T13:43:40.050Z,16.30
2023-01-04T13:46:15.170Z,18.00
2023-01-04T13:48:47.764Z,19.70
2023-01-04T13:51:22.875Z,18.50
2023-01-04T13:54:01.901Z,15.80
2023-01-04T13:56:32.550Z,12.90
2023-01-04T13:59:01.147Z,14.70
2023-01-04T14:01:37.660Z,14.50
2023-01-04T14:04:08.187Z,16.70
2023-01-04T14:06:51.312Z,19.80
2023-01-04T14:09:24.217Z,13.60
2023-01-04T14:12:09.389Z,14.70
2023-01-04T14:15:01.022Z,17.30
2023-01-04T14:17:36.027Z,16.10
2023-01-04T14:20:26.631Z,17.20
2023-01-04T14:22:56.337Z,19.70
2023-01-04T14:25:48.634Z,14.00
2023-01-04T14:28:22.859Z,17.10
2023-01-04T14:31:12.088Z,16.10
2023-01-04T14:33:45.288Z,16.60
2023-01-04T14:36:23.063Z,14.20
2023-01-04T14:39:11.198Z,14.70
2023-01-04T14:41:43.354Z,14.00
2023-01-04T14:44:22.363Z,14.70
2023-01-04T14:46:52.703Z,13.90
2023-01-04T14:49:22.150Z,15.50
2023-01-04T14:51:53.259Z,17.70
2023-01-04T14:54:25.124Z,16.80
2023-01-04T14:56:55.969Z,14.00
2023-01-04T14:59:24.780Z,13.80
2023-01-04T15:01:55.356Z,12.80
2023-01-04T15:04:23.817Z,20.90
2023-01-04T15:06:55.512Z,23.50
2023-01-04T15:09:23.652Z,20.00
2023-01-04T15:11:51.378Z,18.80
2023-01-04T15:14:19.725Z,18.60
2023-01-04T15:16:48.002Z,13.70
2023-01-04T15:19:15.838Z,17.00
2023-01-04T15:21:43.634Z,19.00
2023-01-04T15:24:11.274Z,22.90
2023-01-04T15:26:40.040Z,20.40
2023-01-04T15:29:08.712Z,15.70
2023-01-04T15:31:39.931Z,15.00
2023-01-04T15:34:10.382Z,16.20
2023-01-04T15:36:41.079Z,15.00
2023-01-04T15:39:12.825Z,12.90
2023-01-04T15:44:27.716Z,14.50
2023-01-04T15:46:55.704Z,14.10
2023-01-04T15:49:23.513Z,17.10
2023-01-04T15:51:51.203Z,8.80
2023-01-04T15:54:21.809Z,16.10
2023-01-04T15:56:50.058Z,12.80
2023-01-04T15:59:18.170Z,11.40
2023-01-04T16:01:46.811Z,10.90
2023-01-04T16:04:15.130Z,13.50
2023-01-04T16:06:42.938Z,12.80
2023-01-04T16:09:11.203Z,12.90
2023-01-04T16:11:58.918Z,11.20
2023-01-04T16:14:26.623Z,9.80
2023-01-04T16:16:55.264Z,9.40
2023-01-04T16:19:22.988Z,11.30
2023-01-04T16:21:50.667Z,11.20
2023-01-04T16:24:53.222Z,10.90
2023-01-04T16:27:06.076Z,11.70
2023-01-04T16:29:33.782Z,10.90
2023-01-04T16:32:01.540Z,10.30
2023-01-04T16:34:29.259Z,9.30
2023-01-04T16:36:57.031Z,9.90
2023-01-04T16:39:57.343Z,12.10
2023-01-04T16:42:12.315Z,14.00
2023-01-04T16:44:41.192Z,10.20
2023-01-04T16:47:09.004Z,10.80
2023-01-04T16:49:36.784Z,10.70
2023-01-04T16:52:06.756Z,11.70
2023-01-04T16:54:34.528Z,12.60
2023-01-04T16:57:02.205Z,9.80
2023-01-04T16:59:29.935Z,8.60
2023-01-04T17:01:58.253Z,16.10
2023-01-04T17:04:26.448Z,9.70
2023-01-04T17:06:55.090Z,13.00
2023-01-04T17:09:22.821Z,9.30
2023-01-04T17:12:44.943Z,11.60
2023-01-04T17:15:15.114Z,10.40
2023-01-04T17:17:39.191Z,10.10
2023-01-04T17:20:07.475Z,11.30
2023-01-04T17:22:35.308Z,8.60
2023-01-04T17:25:04.099Z,8.10
2023-01-04T17:27:32.266Z,10.30
2023-01-04T17:29:59.996Z,11.00
2023-01-04T17:32:27.652Z,7.30
2023-01-04T17:34:57.641Z,10.00
2023-01-04T17:37:25.703Z,12.30
2023-01-04T17:39:54.353Z,7.80
2023-01-04T17:42:23.103Z,7.80
2023-01-04T17:44:51.430Z,8.20
2023-01-04T17:47:19.513Z,8.70
2023-01-04T17:49:47.194Z,8.60
2023-01-04T17:52:20.853Z,9.40
2023-01-04T17:54:50.860Z,13.60
2023-01-04T17:57:18.523Z,9.30
2023-01-04T17:59:46.220Z,12.30
2023-01-04T18:02:13.954Z,10.10
2023-01-04T18:04:41.674Z,9.40
2023-01-04T18:07:09.331Z,11.00
2023-01-04T18:09:36.977Z,11.60
2023-01-04T18:12:04.873Z,9.20
2023-01-04T18:14:32.593Z,10.50
2023-01-04T18:17:00.335Z,8.80
2023-01-04T18:19:30.212Z,10.50
2023-01-04T18:21:58.761Z,13.30
2023-01-04T18:24:42.334Z,10.30
2023-01-04T18:27:22.138Z,9.50
2023-01-04T18:29:51.664Z,7.10
2023-01-04T18:32:20.187Z,8.90
2023-01-04T18:34:47.991Z,7.10
2023-01-04T18:37:16.541Z,7.90
2023-01-04T18:39:44.398Z,9.50
2023-01-04T18:42:12.097Z,9.60
2023-01-04T18:44:45.710Z,8.20
2023-01-04T18:47:20.844Z,9.30
2023-01-04T18:49:50.039Z,18.30
2023-01-04T18:52:18.509Z,8.80
2023-01-04T18:54:47.851Z,12.90
2023-01-04T18:57:15.823Z,11.40
2023-01-04T18:59:43.555Z,12.60
2023-01-04T19:02:17.281Z,9.20
2023-01-04T19:04:45.320Z,7.90
2023-01-04T19:07:13.162Z,10.10
2023-01-04T19:09:42.694Z,9.90
2023-01-04T19:12:11.118Z,13.20
2023-01-04T19:14:39.358Z,11.50
2023-01-04T19:17:08.252Z,10.30
2023-01-04T19:19:36.277Z,10.80
2023-01-04T19:22:04.174Z,9.60
2023-01-04T19:24:31.854Z,6.70
2023-01-04T19:27:03.254Z,8.10
2023-01-04T19:29:32.439Z,10.20
2023-01-04T19:32:00.134Z,4.80
2023-01-04T19:34:28.328Z,9.80
2023-01-04T19:36:56.030Z,7.10
2023-01-04T19:39:24.099Z,8.20
2023-01-04T19:41:51.748Z,7.20
2023-01-04T19:44:19.474Z,6.70
2023-01-04T19:46:47.188Z,8.50
2023-01-04T19:49:15.749Z,9.90
2023-01-04T19:51:45.376Z,10.30
2023-01-04T19:54:14.432Z,10.00
2023-01-04T19:56:43.470Z,10.30
2023-01-04T19:59:11.166Z,10.20
2023-01-04T20:01:38.972Z,11.50
2023-01-04T20:04:06.809Z,12.40
2023-01-04T20:06:34.774Z,8.70
2023-01-04T20:09:02.478Z,10.70
2023-01-04T20:11:30.153Z,11.50
2023-01-04T20:13:57.880Z,11.10
2023-01-04T20:16:25.932Z,10.00
2023-01-04T20:18:57.723Z,9.20
2023-01-04T20:21:25.769Z,6.80
2023-01-04T20:23:53.522Z,8.70
2023-01-04T20:26:21.339Z,5.80
2023-01-04T20:28:49.224Z,8.70
2023-01-04T20:31:18.750Z,9.50
2023-01-04T20:33:47.745Z,10.60
2023-01-04T20:36:17.847Z,9.30
2023-01-04T20:38:47.595Z,9.90
2023-01-04T20:41:18.884Z,8.60
2023-01-04T20:43:47.773Z,12.80
2023-01-04T20:46:21.898Z,9.60
2023-01-04T20:48:50.243Z,10.80
2023-01-04T20:51:21.256Z,10.90
2023-01-04T20:53:49.813Z,10.70
2023-01-04T20:56:20.583Z,11.40
2023-01-04T20:58:49.271Z,19.00
2023-01-04T21:01:19.298Z,12.20
2023-01-04T21:03:47.990Z,17.20
2023-01-04T21:06:17.772Z,13.30
2023-01-04T21:08:46.148Z,16.40
2023-01-04T21:11:14.966Z,25.80
2023-01-04T21:13:42.743Z,22.70
2023-01-04T21:16:11.777Z,20.20
2023-01-04T21:18:39.647Z,15.00
2023-01-04T21:21:09.468Z,17.50
2023-01-04T21:23:38.261Z,14.90
2023-01-04T21:26:07.905Z,12.00
2023-01-04T21:28:35.836Z,11.80
2023-01-04T21:31:13.005Z,12.30
2023-01-04T21:33:40.841Z,14.20
2023-01-04T21:36:14.439Z,10.20
2023-01-04T21:38:42.359Z,10.50
2023-01-04T21:41:12.202Z,9.70
2023-01-04T21:43:41.549Z,9.80
2023-01-04T21:46:15.332Z,16.70
2023-01-04T21:48:44.944Z,11.70
2023-01-04T21:51:14.263Z,11.00
2023-01-04T21:53:42.171Z,10.30
2023-01-04T21:56:16.819Z,8.40
2023-01-04T21:58:44.607Z,9.70
2023-01-04T22:01:21.760Z,9.00
2023-01-04T22:03:50.338Z,9.40
2023-01-04T22:06:19.192Z,8.70
2023-01-04T22:08:47.151Z,10.50
2023-01-04T22:11:16.331Z,7.80
2023-01-04T22:13:44.743Z,6.80
2023-01-04T22:16:15.026Z,8.80
2023-01-04T22:18:47.832Z,9.90
2023-01-04T22:21:18.650Z,10.80
2023-01-04T22:23:46.940Z,10.10
2023-01-04T22:26:14.784Z,9.00
2023-01-04T22:28:42.559Z,8.20
2023-01-04T22:31:12.736Z,9.30
2023-01-04T22:33:41.279Z,7.60
2023-01-04T22:36:21.956Z,9.70
2023-01-04T22:38:55.425Z,7.50
2023-01-04T22:41:25.794Z,7.80
2023-01-04T22:43:55.616Z,6.70
2023-01-04T22:46:24.150Z,8.20
2023-01-04T22:48:51.995Z,8.20
2023-01-04T22:51:21.699Z,7.50
2023-01-04T22:53:52.794Z,6.40
2023-01-04T22:56:22.379Z,9.30
2023-01-04T22:58:54.550Z,8.40
2023-01-04T23:01:31.752Z,7.50
2023-01-04T23:04:00.687Z,5.50
2023-01-04T23:06:30.002Z,8.30
2023-01-04T23:09:01.463Z,10.20
2023-01-04T23:11:31.386Z,6.00
2023-01-04T23:14:01.145Z,6.80
2023-01-04T23:16:32.810Z,8.20
2023-01-04T23:19:02.231Z,8.10
2023-01-04T23:21:30.256Z,7.80
2023-01-04T23:23:58.552Z,7.60
2023-01-04T23:26:27.834Z,6.10
2023-01-04T23:28:55.723Z,6.90
2023-01-04T23:31:26.061Z,7.50
2023-01-04T23:33:56.807Z,8.10
2023-01-04T23:36:27.521Z,8.50
2023-01-04T23:38:58.759Z,7.40
2023-01-04T23:41:46.117Z,5.80
2023-01-04T23:47:07.274Z,8.20
2023-01-04T23:49:37.841Z,5.00
2023-01-04T23:52:07.075Z,7.50
2023-01-04T23:54:35.134Z,7.50
2023-01-04T23:57:03.896Z,6.80
2023-01-04T23:59:31.641Z,11.20
